Time;durP1;ratioP1;P1;durP2;ratioP2;P2;SDS_P1;SDS_P2;PMS_P1;PMS_P2;Temp;Humidity;BMP_temperature;BMP_pressure;BME280_temperature;BME280_humidity;BME280_pressure;Samples;Min_cycle;Max_cycle;Signal;HPM_P1;HPM_P2
2021/05/03 00:01:46;;;;;;;4.47;4.07;;;6.90;95.80;;;;;;5031724;28;20545;-49
2021/05/03 00:04:12;;;;;;;4.63;3.80;;;6.70;96.00;;;;;;5030934;28;20091;-50
2021/05/03 00:06:38;;;;;;;4.20;3.58;;;6.60;96.30;;;;;;5031549;28;20029;-45
2021/05/03 00:09:04;;;;;;;4.13;3.63;;;6.50;95.70;;;;;;5031290;28;20033;-44
2021/05/03 00:11:30;;;;;;;4.07;3.38;;;6.40;95.70;;;;;;5031288;28;20025;-46
2021/05/03 00:13:56;;;;;;;3.72;3.20;;;6.40;96.00;;;;;;5029349;28;20167;-43
2021/05/03 00:16:21;;;;;;;3.70;3.40;;;6.30;95.60;;;;;;5031469;28;20053;-44
2021/05/03 00:18:47;;;;;;;5.18;4.30;;;6.40;96.60;;;;;;5031301;28;20029;-47
2021/05/03 00:21:12;;;;;;;7.25;4.13;;;6.30;97.30;;;;;;5031152;28;20159;-44
2021/05/03 00:23:38;;;;;;;3.95;3.65;;;6.30;97.40;;;;;;5029668;28;20037;-48
2021/05/03 00:26:04;;;;;;;5.15;4.47;;;6.20;98.00;;;;;;5029910;28;20068;-43
2021/05/03 00:28:29;;;;;;;5.10;3.88;;;6.20;97.90;;;;;;5031116;28;20049;-45
2021/05/03 00:30:55;;;;;;;8.90;3.70;;;6.20;97.90;;;;;;5030916;28;20114;-43
2021/05/03 00:33:20;;;;;;;5.65;4.00;;;6.10;97.90;;;;;;5012420;28;20519;-47
2021/05/03 00:35:46;;;;;;;8.75;4.25;;;6.10;97.90;;;;;;5030796;28;20034;-46
2021/05/03 00:38:11;;;;;;;8.13;3.78;;;6.10;97.80;;;;;;5030967;28;20371;-47
2021/05/03 00:40:37;;;;;;;3.55;3.35;;;6.00;98.40;;;;;;5030772;28;20029;-45
2021/05/03 00:43:03;;;;;;;4.90;3.65;;;6.00;98.20;;;;;;5029983;28;20034;-44
2021/05/03 00:45:30;;;;;;;4.05;3.65;;;5.90;98.60;;;;;;5030870;28;20029;-44
2021/05/03 00:47:56;;;;;;;9.80;4.32;;;5.80;98.30;;;;;;5030671;28;20017;-44
2021/05/03 00:50:24;;;;;;;3.97;3.60;;;5.70;98.90;;;;;;5030762;28;20041;-45
2021/05/03 00:52:50;;;;;;;7.10;3.75;;;5.70;99.10;;;;;;5030077;28;20021;-43
2021/05/03 00:55:16;;;;;;;6.07;4.57;;;5.70;99.00;;;;;;5030622;28;20104;-47
2021/05/03 00:57:42;;;;;;;5.88;4.30;;;5.70;99.20;;;;;;5030878;28;20029;-47
2021/05/03 01:00:10;;;;;;;4.72;4.05;;;5.70;99.00;;;;;;5030494;28;20442;-42
2021/05/03 01:02:37;;;;;;;4.00;3.60;;;5.70;99.00;;;;;;5030071;28;20029;-45
2021/05/03 01:05:04;;;;;;;4.03;3.65;;;5.70;99.10;;;;;;5030328;28;20030;-46
2021/05/03 01:07:29;;;;;;;6.75;4.15;;;5.70;99.10;;;;;;5030489;28;20025;-46
2021/05/03 01:09:55;;;;;;;7.93;3.95;;;5.70;99.40;;;;;;5030474;28;20029;-49
2021/05/03 01:12:21;;;;;;;6.45;4.97;;;5.70;99.50;;;;;;5030966;28;20494;-45
2021/05/03 01:14:46;;;;;;;6.53;4.55;;;5.70;99.60;;;;;;5029837;28;20029;-50
2021/05/03 01:17:12;;;;;;;5.82;4.55;;;5.70;99.50;;;;;;5030656;28;20126;-45
2021/05/03 01:19:37;;;;;;;5.30;4.50;;;5.60;99.40;;;;;;5030373;28;20104;-48
2021/05/03 01:22:03;;;;;;;8.27;4.22;;;5.70;99.10;;;;;;5030430;28;20028;-44
2021/05/03 01:24:28;;;;;;;10.10;3.90;;;5.70;98.70;;;;;;5032257;28;20036;-49
2021/05/03 01:26:54;;;;;;;6.72;4.20;;;5.70;99.30;;;;;;5034612;28;20026;-46
2021/05/03 01:29:19;;;;;;;7.07;5.20;;;5.70;99.10;;;;;;5034794;28;20037;-44
2021/05/03 01:31:47;;;;;;;5.53;4.90;;;5.90;98.50;;;;;;5034732;28;20022;-45
2021/05/03 01:34:13;;;;;;;4.82;4.43;;;5.90;98.50;;;;;;5034160;28;20431;-44
2021/05/03 01:36:39;;;;;;;4.90;4.50;;;5.90;98.90;;;;;;5034254;28;20109;-49
2021/05/03 01:39:07;;;;;;;8.05;4.57;;;5.90;99.10;;;;;;5034396;28;20029;-45
2021/05/03 01:41:33;;;;;;;9.05;5.18;;;5.90;98.70;;;;;;5034417;28;20021;-44
2021/05/03 01:43:59;;;;;;;7.88;5.28;;;6.00;98.30;;;;;;5033669;28;20122;-45
2021/05/03 01:46:27;;;;;;;5.18;4.70;;;6.10;97.70;;;;;;5034298;28;20102;-45
2021/05/03 01:48:53;;;;;;;7.13;5.20;;;6.10;97.50;;;;;;5033782;28;20052;-46
2021/05/03 01:51:19;;;;;;;6.80;4.47;;;6.10;97.40;;;;;;5034217;28;20033;-47
2021/05/03 01:53:44;;;;;;;5.25;4.55;;;6.00;97.40;;;;;;5033526;28;20391;-43
2021/05/03 01:56:10;;;;;;;10.70;5.63;;;5.90;98.00;;;;;;5034133;28;20037;-48
2021/05/03 01:58:36;;;;;;;8.70;5.53;;;5.70;98.40;;;;;;5033969;28;20025;-47
2021/05/03 02:01:02;;;;;;;6.72;5.20;;;5.50;98.70;;;;;;5033538;28;20037;-48
2021/05/03 02:03:29;;;;;;;5.43;4.93;;;5.40;99.00;;;;;;5033067;28;20056;-45
2021/05/03 02:05:55;;;;;;;5.82;5.05;;;5.30;99.50;;;;;;5034884;28;20436;-47
2021/05/03 02:08:21;;;;;;;6.00;5.43;;;5.20;99.50;;;;;;5034093;28;20104;-49
2021/05/03 02:10:49;;;;;;;6.25;4.95;;;5.20;99.60;;;;;;5033547;28;20033;-50
2021/05/03 02:13:15;;;;;;;8.82;5.05;;;5.20;99.80;;;;;;5032793;28;20495;-46
2021/05/03 02:15:40;;;;;;;5.72;5.15;;;5.10;99.80;;;;;;5033580;28;20029;-46
2021/05/03 02:18:06;;;;;;;6.97;4.80;;;5.10;99.90;;;;;;5033668;28;20021;-45
2021/05/03 02:20:32;;;;;;;6.93;5.20;;;5.10;99.90;;;;;;5033456;28;20404;-45
2021/05/03 02:22:59;;;;;;;5.90;4.90;;;5.00;99.90;;;;;;5031297;28;20029;-46
2021/05/03 02:25:24;;;;;;;6.82;5.38;;;5.00;99.90;;;;;;5033281;28;20022;-46
2021/05/03 02:27:50;;;;;;;12.50;5.15;;;5.00;99.90;;;;;;5033419;28;20022;-46
2021/05/03 02:30:19;;;;;;;11.10;5.10;;;4.90;99.90;;;;;;5033323;28;20083;-44
2021/05/03 02:32:46;;;;;;;6.72;5.82;;;4.80;99.90;;;;;;5033015;28;20057;-47
2021/05/03 02:35:23;;;;;;;6.53;5.82;;;4.70;99.90;;;;;;5031863;28;20025;-51
2021/05/03 02:37:58;;;;;;;9.60;5.85;;;4.70;99.90;;;;;;5033184;28;20017;-45
2021/05/03 02:40:24;;;;;;;6.18;4.88;;;4.70;99.90;;;;;;5033033;28;20045;-44
2021/05/03 02:42:54;;;;;;;6.55;5.50;;;4.70;99.90;;;;;;5032635;28;20030;-47
2021/05/03 02:45:21;;;;;;;6.75;5.43;;;4.70;99.90;;;;;;5033033;28;20033;-45
2021/05/03 02:47:47;;;;;;;9.48;5.22;;;4.70;99.90;;;;;;5033009;28;20052;-45
2021/05/03 02:50:14;;;;;;;5.47;4.88;;;4.70;99.90;;;;;;5032845;28;20030;-44
2021/05/03 02:52:41;;;;;;;6.80;4.93;;;4.70;99.90;;;;;;5032031;28;20029;-43
2021/05/03 02:55:10;;;;;;;9.48;5.53;;;4.70;99.90;;;;;;5015238;28;20025;-45
2021/05/03 02:57:35;;;;;;;11.32;6.00;;;4.70;99.90;;;;;;5032758;28;20021;-46
2021/05/03 03:00:03;;;;;;;6.53;5.15;;;4.80;99.90;;;;;;5032497;28;20029;-46
2021/05/03 03:02:29;;;;;;;6.50;5.50;;;4.80;99.90;;;;;;5032435;28;20025;-40
2021/05/03 03:04:54;;;;;;;6.18;5.05;;;4.70;99.90;;;;;;5032141;28;20021;-46
2021/05/03 03:07:20;;;;;;;5.53;5.00;;;4.80;99.90;;;;;;5032599;28;20033;-45
2021/05/03 03:09:45;;;;;;;5.82;4.90;;;4.70;99.90;;;;;;5032434;28;20026;-46
2021/05/03 03:12:11;;;;;;;8.38;5.40;;;4.70;99.90;;;;;;5032451;28;20505;-48
2021/05/03 03:14:37;;;;;;;5.47;5.03;;;4.70;99.90;;;;;;5031897;28;20025;-44
2021/05/03 03:17:04;;;;;;;6.18;5.57;;;4.70;99.90;;;;;;5032317;28;20391;-44
2021/05/03 03:19:31;;;;;;;6.47;5.80;;;4.60;99.90;;;;;;5032222;28;20490;-45
2021/05/03 03:21:56;;;;;;;8.43;5.57;;;4.60;99.90;;;;;;5032300;28;20040;-48
2021/05/03 03:24:22;;;;;;;6.63;5.45;;;4.70;99.90;;;;;;5030338;28;20033;-44
2021/05/03 03:26:47;;;;;;;5.90;5.20;;;4.70;99.90;;;;;;5032106;28;20030;-45
2021/05/03 03:29:13;;;;;;;6.25;5.65;;;4.60;99.90;;;;;;5032265;28;20278;-44
2021/05/03 03:31:38;;;;;;;7.03;5.43;;;4.70;99.90;;;;;;5032256;28;20144;-45
2021/05/03 03:34:04;;;;;;;6.00;5.40;;;4.70;99.90;;;;;;5031289;28;20025;-47
2021/05/03 03:36:30;;;;;;;6.50;5.85;;;4.70;99.90;;;;;;5032192;28;20029;-47
2021/05/03 03:38:55;;;;;;;5.88;5.28;;;4.60;99.90;;;;;;5031896;28;20031;-47
2021/05/03 03:41:21;;;;;;;6.57;5.97;;;4.60;99.90;;;;;;5031891;28;20041;-44
2021/05/03 03:43:47;;;;;;;10.55;6.32;;;4.60;99.90;;;;;;5031352;28;20040;-45
2021/05/03 03:46:12;;;;;;;7.03;5.53;;;4.60;99.90;;;;;;5031434;28;20063;-46
2021/05/03 03:48:38;;;;;;;8.77;5.45;;;4.60;99.90;;;;;;5031992;28;20071;-50
2021/05/03 03:51:05;;;;;;;12.02;6.10;;;4.60;99.90;;;;;;5031700;28;20029;-45
2021/05/03 03:53:31;;;;;;;12.07;5.97;;;4.60;99.90;;;;;;5031037;28;20029;-44
2021/05/03 03:55:56;;;;;;;6.47;5.85;;;4.60;99.90;;;;;;5031637;28;20028;-45
2021/05/03 03:58:22;;;;;;;7.82;6.03;;;4.60;99.90;;;;;;5032101;28;20029;-44
2021/05/03 04:00:47;;;;;;;6.13;5.53;;;4.60;99.90;;;;;;5035168;28;20680;-51
2021/05/03 04:03:13;;;;;;;9.45;6.13;;;4.70;99.90;;;;;;5037115;28;20045;-51
2021/05/03 04:24:51;;;;;;;5.45;4.88;;;5.10;99.90;;;;;;5028839;28;20095;-43
2021/05/03 04:27:17;;;;;;;10.77;5.72;;;5.20;99.90;;;;;;5031064;28;20057;-50
2021/05/03 04:29:43;;;;;;;6.97;5.03;;;5.20;99.90;;;;;;5031063;28;20045;-50
2021/05/03 04:32:08;;;;;;;6.10;5.45;;;5.30;99.90;;;;;;5031045;28;20026;-47
2021/05/03 04:34:34;;;;;;;7.15;5.88;;;5.30;99.90;;;;;;5030294;28;20221;-44
2021/05/03 04:36:59;;;;;;;7.03;5.75;;;5.30;99.90;;;;;;5031454;28;20021;-45
2021/05/03 04:39:25;;;;;;;6.68;5.97;;;5.30;99.90;;;;;;5030727;28;20029;-47
2021/05/03 04:41:50;;;;;;;7.50;6.03;;;5.20;99.90;;;;;;5030832;28;20029;-44
2021/05/03 04:44:16;;;;;;;12.85;6.13;;;5.30;99.90;;;;;;5030141;28;20474;-46
2021/05/03 04:46:41;;;;;;;9.18;5.40;;;5.20;99.90;;;;;;5030849;28;20049;-45
2021/05/03 04:49:07;;;;;;;11.88;5.82;;;5.30;99.90;;;;;;5030744;28;20471;-48
2021/05/03 04:51:32;;;;;;;9.02;5.05;;;5.40;99.90;;;;;;5030773;28;20030;-43
2021/05/03 04:53:58;;;;;;;5.97;5.10;;;5.60;99.90;;;;;;5030070;28;20108;-45
2021/05/03 04:56:23;;;;;;;6.00;5.15;;;5.80;99.90;;;;;;5030638;28;20063;-46
2021/05/03 04:58:49;;;;;;;9.88;5.20;;;6.20;99.20;;;;;;5030092;28;20021;-44
2021/05/03 05:01:14;;;;;;;7.63;5.70;;;6.60;98.80;;;;;;5059511;23;20144;-42
2021/05/03 05:03:40;;;;;;;6.15;5.25;;;7.10;96.60;;;;;;5050112;28;20021;-43
2021/05/03 05:06:05;;;;;;;6.63;4.82;;;7.60;95.90;;;;;;5050889;28;20052;-49
2021/05/03 05:08:31;;;;;;;7.20;5.07;;;8.00;95.00;;;;;;5050622;28;20056;-45
2021/05/03 05:10:57;;;;;;;8.30;4.70;;;8.30;94.50;;;;;;5050276;28;20056;-44
2021/05/03 05:13:23;;;;;;;9.23;4.80;;;8.50;94.80;;;;;;5049932;28;20031;-43
2021/05/03 05:15:48;;;;;;;5.20;4.68;;;8.60;94.00;;;;;;5050392;28;20025;-45
2021/05/03 05:18:14;;;;;;;5.47;4.95;;;8.60;93.70;;;;;;5050402;28;20104;-49
2021/05/03 05:20:40;;;;;;;4.70;4.30;;;8.70;93.90;;;;;;5050387;28;20022;-47
2021/05/03 05:23:06;;;;;;;6.20;5.25;;;8.70;94.20;;;;;;5047867;28;20044;-42
2021/05/03 05:25:33;;;;;;;9.10;5.18;;;8.90;93.30;;;;;;5050076;28;20368;-45
2021/05/03 05:27:58;;;;;;;9.00;6.10;;;9.20;92.50;;;;;;5048547;28;20028;-43
2021/05/03 05:30:24;;;;;;;7.32;5.28;;;9.20;92.10;;;;;;5051047;28;20029;-43
2021/05/03 05:32:49;;;;;;;9.95;5.53;;;9.10;92.50;;;;;;5049870;28;20399;-41
2021/05/03 05:35:15;;;;;;;5.70;5.13;;;9.00;92.40;;;;;;5050547;28;20029;-41
2021/05/03 05:37:41;;;;;;;6.30;4.95;;;9.00;92.20;;;;;;5050444;28;20028;-45
2021/05/03 05:40:07;;;;;;;7.57;4.78;;;9.20;92.30;;;;;;5050328;28;20052;-43
2021/05/03 05:42:32;;;;;;;12.75;5.63;;;9.40;92.50;;;;;;5049874;28;20021;-42
2021/05/03 05:44:58;;;;;;;6.40;4.50;;;9.90;91.50;;;;;;5050327;28;20312;-43
2021/05/03 05:47:24;;;;;;;5.25;4.50;;;10.50;90.70;;;;;;5050195;28;20018;-46
2021/05/03 05:49:50;;;;;;;5.53;4.90;;;10.90;88.90;;;;;;5049837;28;20032;-64
2021/05/03 05:52:15;;;;;;;16.95;4.90;;;11.00;87.90;;;;;;5050105;28;20028;-55
2021/05/03 05:54:41;;;;;;;8.63;4.95;;;11.00;87.90;;;;;;5049183;28;20075;-55
2021/05/03 05:57:06;;;;;;;7.05;5.47;;;10.80;87.80;;;;;;5049289;28;20103;-49
2021/05/03 05:59:32;;;;;;;6.22;4.72;;;10.80;88.30;;;;;;5049072;28;20371;-47
2021/05/03 06:01:58;;;;;;;5.68;4.50;;;10.80;87.90;;;;;;5049648;28;20070;-48
2021/05/03 06:04:23;;;;;;;5.38;4.82;;;10.90;88.00;;;;;;5049240;28;20055;-45
2021/05/03 06:06:49;;;;;;;4.45;4.05;;;11.10;87.10;;;;;;5049259;28;20550;-45
2021/05/03 06:09:14;;;;;;;7.65;5.03;;;11.10;86.30;;;;;;5050806;28;20033;-44
2021/05/03 06:11:40;;;;;;;7.10;4.63;;;11.30;84.40;;;;;;5053353;28;20031;-46
2021/05/03 06:14:05;;;;;;;7.95;4.65;;;11.10;84.80;;;;;;5052913;28;20029;-52
2021/05/03 06:16:31;;;;;;;6.25;4.80;;;11.00;85.30;;;;;;5051692;28;20036;-42
2021/05/03 06:18:58;;;;;;;4.45;4.00;;;11.00;85.00;;;;;;5053014;28;20400;-45
2021/05/03 06:21:24;;;;;;;5.07;3.97;;;11.10;85.40;;;;;;5051833;28;20104;-45
2021/05/03 06:23:49;;;;;;;5.03;4.53;;;11.40;84.40;;;;;;5052693;28;20475;-43
2021/05/03 06:26:15;;;;;;;3.75;3.45;;;11.90;83.60;;;;;;5053097;28;20029;-47
2021/05/03 06:28:41;;;;;;;8.15;4.40;;;12.40;80.80;;;;;;5053363;28;20150;-48
2021/05/03 06:31:06;;;;;;;6.55;4.38;;;12.70;79.70;;;;;;5053023;28;20117;-44
2021/05/03 06:33:32;;;;;;;4.72;4.13;;;13.00;78.60;;;;;;5052398;28;20044;-47
2021/05/03 06:35:58;;;;;;;7.43;3.97;;;13.10;78.00;;;;;;5053021;28;20441;-44
2021/05/03 06:38:24;;;;;;;5.05;4.15;;;13.30;78.30;;;;;;5053116;28;20486;-47
2021/05/03 06:40:49;;;;;;;7.85;4.38;;;13.70;74.00;;;;;;5035249;28;20036;-48
2021/05/03 06:43:15;;;;;;;7.65;4.30;;;14.00;73.50;;;;;;5052366;28;20179;-47
2021/05/03 06:45:42;;;;;;;7.28;4.90;;;14.30;70.50;;;;;;5053272;28;20025;-49
2021/05/03 06:48:09;;;;;;;7.13;4.10;;;14.00;70.80;;;;;;5053177;28;20119;-47
2021/05/03 06:50:36;;;;;;;8.02;4.30;;;13.80;71.50;;;;;;5034893;28;20542;-43
2021/05/03 06:53:02;;;;;;;4.85;4.15;;;14.20;71.30;;;;;;5052319;28;20585;-46
2021/05/03 06:55:28;;;;;;;6.85;4.43;;;14.80;69.60;;;;;;5053356;28;20518;-48
2021/05/03 06:57:54;;;;;;;6.60;4.45;;;15.00;67.70;;;;;;5052757;28;20056;-43
2021/05/03 07:00:20;;;;;;;6.72;4.53;;;15.00;67.20;;;;;;5052367;28;20071;-44
2021/05/03 07:02:46;;;;;;;9.52;4.60;;;14.70;68.00;;;;;;5051735;28;20064;-43
2021/05/03 07:05:12;;;;;;;4.85;4.35;;;14.50;69.50;;;;;;5052454;28;20076;-45
2021/05/03 07:07:37;;;;;;;5.38;4.63;;;14.30;68.00;;;;;;5052389;28;20441;-46
2021/05/03 07:10:05;;;;;;;6.88;4.47;;;14.50;69.30;;;;;;5052422;28;20025;-44
2021/05/03 07:12:32;;;;;;;4.90;4.18;;;14.80;68.20;;;;;;5052273;28;20029;-43
2021/05/03 07:14:58;;;;;;;6.15;4.53;;;15.00;68.20;;;;;;5052246;28;20048;-47
2021/05/03 07:17:24;;;;;;;7.40;4.95;;;15.10;65.80;;;;;;5052532;28;20443;-44
2021/05/03 07:19:49;;;;;;;13.77;4.70;;;15.20;65.60;;;;;;5052313;28;20025;-44
2021/05/03 07:22:15;;;;;;;6.65;4.85;;;14.90;65.20;;;;;;5050908;28;20296;-47
2021/05/03 07:24:41;;;;;;;11.93;4.65;;;14.60;65.90;;;;;;5051916;28;20390;-44
2021/05/03 07:27:09;;;;;;;6.15;4.65;;;14.30;67.40;;;;;;5034482;28;20074;-49
2021/05/03 07:29:34;;;;;;;5.55;5.03;;;14.10;68.70;;;;;;5034261;28;20094;-45
2021/05/03 07:32:00;;;;;;;5.75;4.60;;;13.90;68.40;;;;;;5052075;28;20029;-51
2021/05/03 07:34:25;;;;;;;5.25;4.50;;;13.90;69.90;;;;;;5051525;28;20029;-48
2021/05/03 07:36:51;;;;;;;5.03;4.47;;;13.90;70.30;;;;;;5052213;28;20036;-44
2021/05/03 07:39:16;;;;;;;6.93;4.60;;;14.10;70.60;;;;;;5052172;28;20032;-44
2021/05/03 07:41:42;;;;;;;13.02;4.88;;;14.50;69.90;;;;;;5051362;28;20430;-48
2021/05/03 07:44:08;;;;;;;4.97;4.45;;;14.80;69.60;;;;;;5051198;28;20029;-49
2021/05/03 07:46:35;;;;;;;4.57;3.80;;;15.30;68.50;;;;;;5052424;28;20029;-53
2021/05/03 07:49:01;;;;;;;7.57;4.20;;;15.90;65.50;;;;;;5051938;28;20025;-46
2021/05/03 07:51:28;;;;;;;4.78;4.38;;;16.60;62.70;;;;;;5051305;28;20025;-46
2021/05/03 07:53:54;;;;;;;4.72;3.78;;;16.90;60.90;;;;;;5051119;28;20064;-45
2021/05/03 07:56:20;;;;;;;10.75;4.00;;;17.60;59.30;;;;;;5051574;28;20025;-48
2021/05/03 07:58:47;;;;;;;6.00;3.90;;;18.30;56.10;;;;;;5050515;28;20033;-48
2021/05/03 08:01:13;;;;;;;5.45;3.92;;;18.50;53.90;;;;;;5051143;28;20398;-48
2021/05/03 08:03:41;;;;;;;3.72;3.35;;;18.70;54.00;;;;;;5053604;28;20033;-52
2021/05/03 08:06:08;;;;;;;5.35;4.07;;;18.90;53.40;;;;;;5051530;28;20481;-44
2021/05/03 08:08:34;;;;;;;6.10;4.10;;;18.90;52.90;;;;;;5051628;28;20025;-47
2021/05/03 08:11:00;;;;;;;4.50;4.05;;;18.60;53.10;;;;;;5051210;28;20025;-43
2021/05/03 08:13:29;;;;;;;4.50;3.88;;;18.80;53.10;;;;;;5050542;28;20072;-44
2021/05/03 08:15:58;;;;;;;5.10;3.75;;;19.30;52.00;;;;;;5051099;28;20126;-46
2021/05/03 08:18:24;;;;;;;7.22;4.20;;;19.60;50.50;;;;;;5051438;28;20068;-44
2021/05/03 08:20:50;;;;;;;5.20;3.90;;;19.00;51.10;;;;;;5051073;28;20042;-43
2021/05/03 08:23:19;;;;;;;7.03;4.85;;;19.10;50.80;;;;;;5050635;28;20443;-46
2021/05/03 08:25:49;;;;;;;6.65;3.92;;;19.20;50.40;;;;;;5051145;28;20033;-45
2021/05/03 08:28:15;;;;;;;4.85;4.22;;;19.50;50.00;;;;;;5033626;28;20082;-44
2021/05/03 08:30:42;;;;;;;5.35;4.40;;;19.80;49.90;;;;;;5050927;28;20021;-48
2021/05/03 08:33:07;;;;;;;6.88;5.15;;;20.40;48.90;;;;;;5032038;28;20025;-43
2021/05/03 08:35:34;;;;;;;5.20;4.35;;;19.90;47.90;;;;;;5050814;28;20067;-47
2021/05/03 08:38:00;;;;;;;4.75;4.03;;;20.10;47.90;;;;;;5050953;28;20104;-45
2021/05/03 08:40:26;;;;;;;9.15;5.05;;;20.20;48.00;;;;;;5050716;28;20083;-45
2021/05/03 08:42:52;;;;;;;7.00;4.50;;;20.50;48.30;;;;;;5032316;28;20028;-47
2021/05/03 08:45:17;;;;;;;7.50;5.63;;;20.90;47.70;;;;;;5050726;28;20094;-48
2021/05/03 08:47:58;;;;;;;7.82;5.13;;;21.00;46.90;;;;;;5050954;28;20542;-44
2021/05/03 08:50:36;;;;;;;5.78;5.20;;;20.10;46.80;;;;;;5033070;28;20021;-47
2021/05/03 08:53:05;;;;;;;8.13;5.35;;;18.60;50.50;;;;;;5050447;28;20021;-51
2021/05/03 08:55:32;;;;;;;6.63;5.55;;;18.10;51.00;;;;;;5050526;28;20102;-42
2021/05/03 08:57:59;;;;;;;6.70;5.47;;;18.10;51.10;;;;;;5050657;28;20025;-49
2021/05/03 09:00:24;;;;;;;6.05;5.05;;;18.40;50.90;;;;;;5050593;28;20029;-48
2021/05/03 09:02:51;;;;;;;8.93;5.97;;;18.20;50.70;;;;;;5042868;28;20025;-44
2021/05/03 09:05:17;;;;;;;10.45;5.65;;;18.00;50.90;;;;;;5041551;28;20079;-46
2021/05/03 09:07:47;;;;;;;6.75;5.82;;;18.20;50.90;;;;;;5050090;28;20021;-49
2021/05/03 09:10:14;;;;;;;7.45;5.78;;;17.70;48.40;;;;;;5053103;28;20025;-44
2021/05/03 09:12:40;;;;;;;8.20;6.07;;;17.30;50.40;;;;;;5049122;28;20025;-45
2021/05/03 09:15:06;;;;;;;7.28;6.15;;;17.00;50.70;;;;;;5050073;28;20105;-44
2021/05/03 09:17:37;;;;;;;8.95;6.07;;;17.20;51.10;;;;;;5050469;28;20106;-46
2021/05/03 09:20:07;;;;;;;9.30;5.47;;;17.30;50.00;;;;;;5049584;28;20521;-46
2021/05/03 09:25:35;;;;;;;7.18;5.55;;;16.60;51.90;;;;;;5049808;28;20017;-53
2021/05/03 09:28:14;;;;;;;6.00;5.40;;;16.10;50.70;;;;;;5050498;28;20036;-50
2021/05/03 09:30:57;;;;;;;7.60;5.38;;;15.30;51.20;;;;;;5032109;28;20111;-44
2021/05/03 09:33:32;;;;;;;6.05;5.15;;;14.60;53.60;;;;;;5048907;28;20029;-49
2021/05/03 09:36:06;;;;;;;8.02;5.50;;;14.70;54.00;;;;;;5049032;28;20507;-47
2021/05/03 09:38:46;;;;;;;8.00;5.45;;;14.60;54.80;;;;;;5049842;28;20025;-51
2021/05/03 09:41:25;;;;;;;5.85;5.25;;;14.60;55.00;;;;;;5031405;28;20029;-45
2021/05/03 09:44:05;;;;;;;5.90;5.10;;;15.00;53.70;;;;;;5050642;28;20064;-54
2021/05/03 09:46:37;;;;;;;6.30;4.30;;;15.50;52.80;;;;;;5053943;28;20558;-51
2021/05/03 09:49:02;;;;;;;5.57;4.68;;;15.60;50.70;;;;;;5035631;28;20446;-48
2021/05/03 09:51:33;;;;;;;8.68;4.70;;;15.40;50.10;;;;;;5053613;28;20025;-48
2021/05/03 09:54:14;;;;;;;6.13;5.07;;;14.90;50.10;;;;;;5052710;28;20618;-51
2021/05/03 09:56:56;;;;;;;5.10;4.60;;;14.70;51.30;;;;;;5053182;28;20017;-55
2021/05/03 09:59:41;;;;;;;5.22;4.30;;;14.40;51.30;;;;;;5044128;28;20541;-48
2021/05/03 10:02:22;;;;;;;7.00;4.97;;;14.30;51.60;;;;;;5055602;28;20032;-57
2021/05/03 10:05:02;;;;;;;4.85;4.45;;;14.20;51.00;;;;;;5055299;28;20024;-60
2021/05/03 10:07:30;;;;;;;4.70;4.13;;;14.30;50.30;;;;;;5053300;28;20021;-52
2021/05/03 10:10:16;;;;;;;7.80;4.90;;;14.20;50.30;;;;;;5053318;28;20025;-60
2021/05/03 10:12:41;;;;;;;5.00;4.40;;;14.20;50.20;;;;;;5051158;28;20045;-55
2021/05/03 10:15:10;;;;;;;10.45;4.35;;;14.40;50.40;;;;;;5053293;28;20159;-58
2021/05/03 10:17:37;;;;;;;5.72;4.35;;;14.60;52.00;;;;;;5052971;28;20032;-57
2021/05/03 10:20:06;;;;;;;5.25;3.72;;;14.80;50.90;;;;;;5053662;28;20091;-55
2021/05/03 10:22:32;;;;;;;4.10;3.67;;;14.90;50.60;;;;;;5035238;28;20446;-51
2021/05/03 10:25:03;;;;;;;3.55;3.17;;;14.80;50.90;;;;;;5053105;28;20043;-46
2021/05/03 10:27:37;;;;;;;4.18;3.78;;;14.90;51.80;;;;;;5052073;28;20017;-52
2021/05/03 10:30:07;;;;;;;4.60;4.13;;;15.30;51.00;;;;;;5035206;28;20033;-49
2021/05/03 10:32:34;;;;;;;8.15;5.22;;;15.10;51.60;;;;;;5052649;28;20112;-56
2021/05/03 10:35:02;;;;;;;4.88;4.38;;;15.10;52.50;;;;;;5052855;28;20090;-55
2021/05/03 10:37:31;;;;;;;6.45;4.50;;;15.20;52.50;;;;;;5053391;28;20105;-56
2021/05/03 10:40:05;;;;;;;6.30;4.10;;;15.20;52.90;;;;;;5052624;28;20013;-52
2021/05/03 10:42:31;;;;;;;4.47;4.07;;;15.00;50.20;;;;;;5035011;28;20119;-52
2021/05/03 10:45:15;;;;;;;3.42;2.80;;;14.90;47.00;;;;;;5053241;28;20150;-49
2021/05/03 10:47:50;;;;;;;4.70;2.90;;;14.90;48.40;;;;;;5052893;28;20371;-55
2021/05/03 10:50:32;;;;;;;3.63;3.20;;;14.90;48.90;;;;;;5053387;28;20029;-54
2021/05/03 10:53:30;;;;;;;5.28;2.42;;;14.90;47.60;;;;;;5052324;28;20025;-53
2021/05/03 10:56:08;;;;;;;4.47;3.45;;;15.10;49.80;;;;;;5051309;28;20052;-52
2021/05/03 10:59:07;;;;;;;3.20;2.90;;;15.40;47.00;;;;;;5061957;28;20103;-56
2021/05/03 11:01:51;;;;;;;5.35;3.25;;;15.20;46.90;;;;;;5084270;22;20136;-45
2021/05/03 11:04:17;;;;;;;4.13;3.20;;;15.00;49.30;;;;;;5053072;28;20031;-48
2021/05/03 11:07:02;;;;;;;5.47;3.40;;;15.00;49.90;;;;;;5071743;28;20040;-47
2021/05/03 11:09:28;;;;;;;10.23;3.30;;;14.90;49.50;;;;;;5070711;28;20129;-45
2021/05/03 11:12:23;;;;;;;4.18;3.42;;;14.90;51.20;;;;;;5077913;28;20060;-44
2021/05/03 11:15:23;;;;;;;3.05;2.40;;;15.10;51.10;;;;;;5083482;28;20052;-44
2021/05/03 11:18:21;;;;;;;4.22;3.25;;;15.00;51.90;;;;;;5083239;28;20047;-46
2021/05/03 11:21:15;;;;;;;5.93;3.00;;;15.00;50.30;;;;;;5077339;28;20036;-47
2021/05/03 11:23:41;;;;;;;3.60;3.20;;;15.00;50.40;;;;;;5080775;28;20048;-55
2021/05/03 11:26:34;;;;;;;4.22;3.83;;;14.70;51.90;;;;;;5075840;28;20441;-42
2021/05/03 11:29:10;;;;;;;7.30;3.53;;;14.80;52.40;;;;;;5070063;28;20059;-48
2021/05/03 11:31:36;;;;;;;4.35;3.63;;;14.70;54.00;;;;;;5083502;28;20030;-43
2021/05/03 11:34:08;;;;;;;4.32;3.40;;;14.80;53.80;;;;;;5091936;28;20032;-51
2021/05/03 11:36:39;;;;;;;3.30;3.00;;;14.80;53.70;;;;;;5084879;28;20059;-48
2021/05/03 11:39:16;;;;;;;5.88;3.40;;;14.80;54.00;;;;;;5092781;28;20035;-47
2021/05/03 11:44:24;;;;;;;8.02;4.55;;;14.90;53.00;;;;;;5091762;28;20028;-47
2021/05/03 11:46:49;;;;;;;4.32;3.92;;;14.90;53.20;;;;;;5090436;28;20020;-48
2021/05/03 11:49:18;;;;;;;3.97;3.53;;;14.80;53.80;;;;;;5091939;28;20089;-49
2021/05/03 11:51:51;;;;;;;5.20;4.50;;;15.00;55.50;;;;;;5091900;28;20028;-49
2021/05/03 11:54:34;;;;;;;5.95;4.43;;;15.10;54.00;;;;;;5073663;28;20027;-48
2021/05/03 11:57:10;;;;;;;3.17;2.95;;;15.10;53.80;;;;;;5092676;28;20016;-50
2021/05/03 11:59:36;;;;;;;4.07;3.00;;;15.10;52.30;;;;;;5092175;28;20055;-49
2021/05/03 12:02:04;;;;;;;3.20;2.88;;;15.20;53.40;;;;;;5091646;28;20052;-48
2021/05/03 12:04:34;;;;;;;10.73;3.40;;;15.40;52.60;;;;;;5091067;28;20047;-51
2021/05/03 12:07:19;;;;;;;3.45;3.15;;;15.30;50.80;;;;;;5073060;28;20020;-46
2021/05/03 12:09:46;;;;;;;4.88;3.20;;;15.20;50.10;;;;;;5092235;28;20035;-46
2021/05/03 12:12:13;;;;;;;5.07;3.30;;;15.00;50.90;;;;;;5091838;28;20024;-49
2021/05/03 12:14:50;;;;;;;4.20;3.08;;;15.00;51.20;;;;;;5091183;28;20059;-50
2021/05/03 12:17:22;;;;;;;5.70;3.22;;;15.10;52.50;;;;;;5091769;28;20059;-48
2021/05/03 12:19:49;;;;;;;3.97;2.80;;;15.20;52.10;;;;;;5091745;28;20028;-52
2021/05/03 12:22:16;;;;;;;5.07;3.05;;;15.20;49.50;;;;;;5091127;28;20496;-49
2021/05/03 12:24:44;;;;;;;2.95;2.75;;;15.10;49.40;;;;;;5091044;28;20029;-47
2021/05/03 12:27:10;;;;;;;3.15;2.85;;;15.10;51.30;;;;;;5091605;28;20024;-49
2021/05/03 12:29:40;;;;;;;5.43;3.25;;;15.20;51.20;;;;;;5091359;28;20036;-50
2021/05/03 12:32:17;;;;;;;3.38;2.50;;;15.30;51.30;;;;;;5091495;28;20035;-49
2021/05/03 12:34:48;;;;;;;3.55;3.17;;;15.40;50.80;;;;;;5090692;28;20024;-47
2021/05/03 12:37:29;;;;;;;3.60;2.97;;;15.30;50.50;;;;;;5091596;28;20016;-46
2021/05/03 12:40:06;;;;;;;7.53;3.60;;;15.00;51.60;;;;;;5091650;28;20087;-45
2021/05/03 12:42:36;;;;;;;2.72;2.53;;;15.00;51.40;;;;;;5091327;28;20028;-52
2021/05/03 12:45:41;;;;;;;4.10;2.38;;;14.80;50.20;;;;;;5073053;28;20031;-52
2021/05/03 12:48:24;;;;;;;4.20;2.90;;;14.80;51.50;;;;;;5086315;28;20059;-47
2021/05/03 12:56:44;;;;;;;3.78;2.75;;;14.90;50.50;;;;;;5091556;28;20062;-50
2021/05/03 12:59:27;;;;;;;2.67;2.47;;;14.90;50.80;;;;;;5091419;28;20024;-47
2021/05/03 13:02:35;;;;;;;2.67;2.47;;;15.00;52.50;;;;;;5090967;28;20035;-47
2021/05/03 13:08:01;;;;;;;4.28;2.80;;;15.20;50.20;;;;;;5092083;28;20024;-46
2021/05/03 13:29:57;;;;;;;5.22;2.90;;;14.80;51.60;;;;;;5090662;28;20043;-47
2021/05/03 13:32:29;;;;;;;3.50;3.05;;;14.90;50.60;;;;;;5090417;28;20024;-45
2021/05/03 13:34:55;;;;;;;3.42;3.13;;;15.00;50.70;;;;;;5090051;28;20048;-44
2021/05/03 13:37:21;;;;;;;2.65;2.45;;;15.10;50.20;;;;;;5090556;28;20025;-48
2021/05/03 13:39:47;;;;;;;2.85;2.58;;;15.20;50.60;;;;;;5091053;28;20020;-49
2021/05/03 13:42:14;;;;;;;3.03;2.70;;;15.20;49.70;;;;;;5090382;28;20031;-45
2021/05/03 13:44:42;;;;;;;6.18;2.83;;;15.30;51.70;;;;;;5089469;28;20502;-45
2021/05/03 13:47:08;;;;;;;3.13;2.78;;;15.30;50.70;;;;;;5088213;28;20043;-49
2021/05/03 13:49:34;;;;;;;3.15;2.95;;;15.30;51.00;;;;;;5090547;28;20032;-53
2021/05/03 13:52:01;;;;;;;6.28;3.00;;;15.20;49.80;;;;;;5088652;28;20519;-50